sensor_id;sensor_type;location;lat;lon;timestamp;pressure;altitude;pressure_sealevel;temperature;humidity
45888;BME280;31595;51.418;7.572;2023-02-22T00:00:00;100249.63;;;10.61;71.02
45888;BME280;31595;51.418;7.572;2023-02-22T00:02:28;100242.88;;;10.62;70.72
45888;BME280;31595;51.418;7.572;2023-02-22T00:05:04;100246.84;;;10.61;71.46
45888;BME280;31595;51.418;7.572;2023-02-22T00:07:39;100244.72;;;10.66;71.01
45888;BME280;31595;51.418;7.572;2023-02-22T00:12:55;100248.72;;;10.51;70.86
45888;BME280;31595;51.418;7.572;2023-02-22T00:15:30;100234.78;;;10.43;70.58
45888;BME280;31595;51.418;7.572;2023-02-22T00:17:59;100230.13;;;10.29;70.81
45888;BME280;31595;51.418;7.572;2023-02-22T00:20:38;100226.59;;;10.24;71.73
45888;BME280;31595;51.418;7.572;2023-02-22T00:23:11;100226.06;;;10.13;72.02
45888;BME280;31595;51.418;7.572;2023-02-22T00:25:39;100228.47;;;10.06;71.32
45888;BME280;31595;51.418;7.572;2023-02-22T00:28:07;100226.63;;;10.01;71.36
45888;BME280;31595;51.418;7.572;2023-02-22T00:30:41;100225.25;;;9.90;71.96
45888;BME280;31595;51.418;7.572;2023-02-22T00:33:10;100224.94;;;9.91;73.28
45888;BME280;31595;51.418;7.572;2023-02-22T00:35:45;100229.13;;;9.89;73.20
45888;BME280;31595;51.418;7.572;2023-02-22T00:38:16;100221.19;;;9.96;72.41
45888;BME280;31595;51.418;7.572;2023-02-22T00:40:45;100211.19;;;9.95;72.77
45888;BME280;31595;51.418;7.572;2023-02-22T00:43:24;100220.63;;;9.85;73.04
45888;BME280;31595;51.418;7.572;2023-02-22T00:45:53;100208.28;;;9.78;72.05
45888;BME280;31595;51.418;7.572;2023-02-22T00:48:24;100210.19;;;9.68;73.11
45888;BME280;31595;51.418;7.572;2023-02-22T00:50:52;100197.59;;;9.71;74.16
45888;BME280;31595;51.418;7.572;2023-02-22T00:53:21;100208.59;;;9.76;72.86
45888;BME280;31595;51.418;7.572;2023-02-22T00:55:52;100200.97;;;9.82;73.77
45888;BME280;31595;51.418;7.572;2023-02-22T01:01:12;100205.31;;;9.96;73.54
45888;BME280;31595;51.418;7.572;2023-02-22T01:03:39;100205.13;;;9.93;72.21
45888;BME280;31595;51.418;7.572;2023-02-22T01:06:07;100198.72;;;9.92;72.58
45888;BME280;31595;51.418;7.572;2023-02-22T01:08:43;100200.81;;;9.87;72.54
45888;BME280;31595;51.418;7.572;2023-02-22T01:11:15;100199.31;;;9.81;72.79
45888;BME280;31595;51.418;7.572;2023-02-22T01:13:43;100200.59;;;9.74;72.30
45888;BME280;31595;51.418;7.572;2023-02-22T01:16:13;100193.38;;;9.73;72.26
45888;BME280;31595;51.418;7.572;2023-02-22T01:18:43;100189.56;;;9.69;72.57
45888;BME280;31595;51.418;7.572;2023-02-22T01:21:11;100190.66;;;9.60;71.84
45888;BME280;31595;51.418;7.572;2023-02-22T01:23:43;100184.38;;;9.54;71.82
45888;BME280;31595;51.418;7.572;2023-02-22T01:26:16;100181.41;;;9.50;72.08
45888;BME280;31595;51.418;7.572;2023-02-22T01:28:44;100176.78;;;9.46;72.25
45888;BME280;31595;51.418;7.572;2023-02-22T01:31:18;100176.59;;;9.42;71.46
45888;BME280;31595;51.418;7.572;2023-02-22T01:33:49;100181.34;;;9.42;72.45
45888;BME280;31595;51.418;7.572;2023-02-22T01:36:17;100171.16;;;9.37;71.59
45888;BME280;31595;51.418;7.572;2023-02-22T01:38:44;100168.06;;;9.39;71.65
45888;BME280;31595;51.418;7.572;2023-02-22T01:41:12;100162.63;;;9.33;72.84
45888;BME280;31595;51.418;7.572;2023-02-22T01:43:43;100161.16;;;9.36;72.95
45888;BME280;31595;51.418;7.572;2023-02-22T01:46:25;100154.94;;;9.30;73.49
45888;BME280;31595;51.418;7.572;2023-02-22T01:48:57;100158.22;;;9.32;72.15
45888;BME280;31595;51.418;7.572;2023-02-22T01:51:30;100155.75;;;9.31;72.64
45888;BME280;31595;51.418;7.572;2023-02-22T01:54:25;100145.88;;;9.25;72.36
45888;BME280;31595;51.418;7.572;2023-02-22T01:56:59;100149.84;;;9.10;71.78
45888;BME280;31595;51.418;7.572;2023-02-22T01:59:33;100153.34;;;9.02;73.23
45888;BME280;31595;51.418;7.572;2023-02-22T02:02:09;100139.44;;;9.02;72.02
45888;BME280;31595;51.418;7.572;2023-02-22T02:04:37;100155.75;;;8.94;72.96
45888;BME280;31595;51.418;7.572;2023-02-22T02:07:25;100144.94;;;8.79;72.15
45888;BME280;31595;51.418;7.572;2023-02-22T02:10:00;100152.06;;;8.71;72.89
45888;BME280;31595;51.418;7.572;2023-02-22T02:12:30;100146.19;;;8.73;73.71
45888;BME280;31595;51.418;7.572;2023-02-22T02:15:19;100141.13;;;8.75;74.26
45888;BME280;31595;51.418;7.572;2023-02-22T02:17:50;100141.13;;;8.75;73.44
45888;BME280;31595;51.418;7.572;2023-02-22T02:20:23;100132.81;;;8.75;74.54
45888;BME280;31595;51.418;7.572;2023-02-22T02:22:56;100134.84;;;8.83;74.39
45888;BME280;31595;51.418;7.572;2023-02-22T02:25:50;100136.31;;;8.81;74.53
45888;BME280;31595;51.418;7.572;2023-02-22T02:32:06;100128.78;;;8.81;74.19
45888;BME280;31595;51.418;7.572;2023-02-22T02:34:45;100131.19;;;8.74;73.37
45888;BME280;31595;51.418;7.572;2023-02-22T02:37:25;100125.63;;;8.74;75.19
45888;BME280;31595;51.418;7.572;2023-02-22T02:40:09;100131.34;;;8.78;73.76
45888;BME280;31595;51.418;7.572;2023-02-22T02:42:41;100123.44;;;8.71;75.02
45888;BME280;31595;51.418;7.572;2023-02-22T02:45:17;100130.75;;;8.67;74.91
45888;BME280;31595;51.418;7.572;2023-02-22T02:51:16;100120.72;;;8.57;74.72
45888;BME280;31595;51.418;7.572;2023-02-22T02:53:48;100119.56;;;8.58;74.46
45888;BME280;31595;51.418;7.572;2023-02-22T02:56:18;100114.00;;;8.58;74.78
45888;BME280;31595;51.418;7.572;2023-02-22T02:58:51;100116.69;;;8.49;74.47
45888;BME280;31595;51.418;7.572;2023-02-22T03:01:38;100110.19;;;8.40;74.53
45888;BME280;31595;51.418;7.572;2023-02-22T03:04:32;100107.44;;;8.40;74.64
45888;BME280;31595;51.418;7.572;2023-02-22T03:07:19;100102.72;;;8.41;74.17
45888;BME280;31595;51.418;7.572;2023-02-22T03:10:06;100101.25;;;8.29;73.81
45888;BME280;31595;51.418;7.572;2023-02-22T03:12:42;100093.13;;;8.19;74.01
45888;BME280;31595;51.418;7.572;2023-02-22T03:15:24;100095.41;;;8.17;74.12
45888;BME280;31595;51.418;7.572;2023-02-22T03:18:03;100089.00;;;8.17;74.86
45888;BME280;31595;51.418;7.572;2023-02-22T03:20:40;100089.41;;;8.10;74.63
45888;BME280;31595;51.418;7.572;2023-02-22T03:23:20;100084.91;;;8.00;74.44
45888;BME280;31595;51.418;7.572;2023-02-22T03:25:56;100090.53;;;7.95;74.16
45888;BME280;31595;51.418;7.572;2023-02-22T03:28:30;100090.31;;;7.91;73.14
45888;BME280;31595;51.418;7.572;2023-02-22T03:33:49;100085.50;;;7.83;74.47
45888;BME280;31595;51.418;7.572;2023-02-22T03:36:39;100078.81;;;7.84;73.52
45888;BME280;31595;51.418;7.572;2023-02-22T03:39:17;100077.72;;;7.85;73.43
45888;BME280;31595;51.418;7.572;2023-02-22T03:41:57;100081.38;;;7.81;73.25
45888;BME280;31595;51.418;7.572;2023-02-22T03:44:29;100078.78;;;7.70;72.97
45888;BME280;31595;51.418;7.572;2023-02-22T03:47:00;100077.84;;;7.61;74.25
45888;BME280;31595;51.418;7.572;2023-02-22T03:49:33;100073.97;;;7.62;74.34
45888;BME280;31595;51.418;7.572;2023-02-22T03:52:04;100075.38;;;7.60;73.46
45888;BME280;31595;51.418;7.572;2023-02-22T03:54:38;100072.47;;;7.51;73.41
45888;BME280;31595;51.418;7.572;2023-02-22T03:57:09;100075.56;;;7.49;73.37
45888;BME280;31595;51.418;7.572;2023-02-22T03:59:39;100072.66;;;7.41;72.68
45888;BME280;31595;51.418;7.572;2023-02-22T04:02:07;100073.88;;;7.35;73.14
45888;BME280;31595;51.418;7.572;2023-02-22T04:04:36;100080.31;;;7.30;72.93
45888;BME280;31595;51.418;7.572;2023-02-22T04:07:08;100070.91;;;7.31;72.74
45888;BME280;31595;51.418;7.572;2023-02-22T04:09:36;100069.63;;;7.23;72.57
45888;BME280;31595;51.418;7.572;2023-02-22T04:12:04;100074.66;;;7.21;73.14
45888;BME280;31595;51.418;7.572;2023-02-22T04:14:32;100072.41;;;7.23;73.37
45888;BME280;31595;51.418;7.572;2023-02-22T04:17:00;100074.94;;;7.20;72.89
45888;BME280;31595;51.418;7.572;2023-02-22T04:19:28;100066.09;;;7.18;73.78
45888;BME280;31595;51.418;7.572;2023-02-22T04:21:56;100067.31;;;7.11;74.00
45888;BME280;31595;51.418;7.572;2023-02-22T04:24:46;100066.25;;;7.07;73.63
45888;BME280;31595;51.418;7.572;2023-02-22T04:27:24;100061.06;;;7.06;74.19
45888;BME280;31595;51.418;7.572;2023-02-22T04:29:55;100061.63;;;7.03;73.13
45888;BME280;31595;51.418;7.572;2023-02-22T04:32:22;100063.88;;;7.01;73.51
45888;BME280;31595;51.418;7.572;2023-02-22T04:34:50;100060.91;;;6.97;73.95
45888;BME280;31595;51.418;7.572;2023-02-22T04:37:18;100058.31;;;6.87;72.83
45888;BME280;31595;51.418;7.572;2023-02-22T04:39:50;100058.06;;;6.83;73.34
45888;BME280;31595;51.418;7.572;2023-02-22T04:42:17;100057.03;;;6.79;73.54
45888;BME280;31595;51.418;7.572;2023-02-22T04:44:45;100048.81;;;6.74;73.91
45888;BME280;31595;51.418;7.572;2023-02-22T04:47:18;100048.28;;;6.72;74.15
45888;BME280;31595;51.418;7.572;2023-02-22T04:49:45;100047.28;;;6.63;74.28
45888;BME280;31595;51.418;7.572;2023-02-22T04:52:15;100043.41;;;6.64;74.04
45888;BME280;31595;51.418;7.572;2023-02-22T04:54:43;100042.38;;;6.60;74.00
45888;BME280;31595;51.418;7.572;2023-02-22T04:57:12;100035.78;;;6.56;74.00
45888;BME280;31595;51.418;7.572;2023-02-22T04:59:39;100038.00;;;6.54;74.83
45888;BME280;31595;51.418;7.572;2023-02-22T05:02:09;100036.34;;;6.53;74.20
45888;BME280;31595;51.418;7.572;2023-02-22T05:04:43;100027.00;;;6.48;74.51
45888;BME280;31595;51.418;7.572;2023-02-22T05:07:13;100026.03;;;6.39;74.36
45888;BME280;31595;51.418;7.572;2023-02-22T05:09:41;100026.16;;;6.29;73.50
45888;BME280;31595;51.418;7.572;2023-02-22T05:12:13;100030.13;;;6.23;73.86
45888;BME280;31595;51.418;7.572;2023-02-22T05:14:44;100024.00;;;6.26;74.73
45888;BME280;31595;51.418;7.572;2023-02-22T05:17:13;100021.59;;;6.19;74.34
45888;BME280;31595;51.418;7.572;2023-02-22T05:19:43;100028.28;;;6.13;74.52
45888;BME280;31595;51.418;7.572;2023-02-22T05:22:18;100019.19;;;6.13;74.87
45888;BME280;31595;51.418;7.572;2023-02-22T05:24:49;100011.50;;;6.09;74.70
45888;BME280;31595;51.418;7.572;2023-02-22T05:27:19;100025.72;;;5.98;74.89
45888;BME280;31595;51.418;7.572;2023-02-22T05:29:49;100018.22;;;6.03;75.17
45888;BME280;31595;51.418;7.572;2023-02-22T05:32:16;100021.88;;;5.99;74.99
45888;BME280;31595;51.418;7.572;2023-02-22T05:34:44;100023.56;;;5.89;74.79
45888;BME280;31595;51.418;7.572;2023-02-22T05:37:11;100019.41;;;5.92;74.76
45888;BME280;31595;51.418;7.572;2023-02-22T05:39:39;100015.06;;;5.86;74.95
45888;BME280;31595;51.418;7.572;2023-02-22T05:42:06;100014.00;;;5.82;74.87
45888;BME280;31595;51.418;7.572;2023-02-22T05:44:35;100016.53;;;5.78;74.96
45888;BME280;31595;51.418;7.572;2023-02-22T05:47:03;100021.00;;;5.74;75.08
45888;BME280;31595;51.418;7.572;2023-02-22T05:49:31;100020.19;;;5.74;75.08
45888;BME280;31595;51.418;7.572;2023-02-22T05:52:02;100016.88;;;5.72;75.08
45888;BME280;31595;51.418;7.572;2023-02-22T05:54:29;100018.88;;;5.66;75.17
45888;BME280;31595;51.418;7.572;2023-02-22T05:56:57;100012.53;;;5.65;75.19
45888;BME280;31595;51.418;7.572;2023-02-22T05:59:25;100009.47;;;5.67;75.07
45888;BME280;31595;51.418;7.572;2023-02-22T06:01:59;100012.53;;;5.65;74.80
45888;BME280;31595;51.418;7.572;2023-02-22T06:04:29;100007.34;;;5.59;74.83
45888;BME280;31595;51.418;7.572;2023-02-22T06:06:56;100009.59;;;5.57;75.08
45888;BME280;31595;51.418;7.572;2023-02-22T06:09:26;100012.34;;;5.57;74.97
45888;BME280;31595;51.418;7.572;2023-02-22T06:11:54;100014.22;;;5.61;74.73
45888;BME280;31595;51.418;7.572;2023-02-22T06:14:21;100020.69;;;5.52;74.94
45888;BME280;31595;51.418;7.572;2023-02-22T06:16:52;100015.41;;;5.55;74.71
45888;BME280;31595;51.418;7.572;2023-02-22T06:19:21;100006.63;;;5.48;74.86
45888;BME280;31595;51.418;7.572;2023-02-22T06:21:49;100018.25;;;5.45;74.75
45888;BME280;31595;51.418;7.572;2023-02-22T06:24:20;100015.59;;;5.35;74.19
45888;BME280;31595;51.418;7.572;2023-02-22T06:26:53;100019.53;;;5.28;74.39
45888;BME280;31595;51.418;7.572;2023-02-22T06:29:31;100015.41;;;5.26;74.51
45888;BME280;31595;51.418;7.572;2023-02-22T06:31:59;100020.66;;;5.27;73.93
45888;BME280;31595;51.418;7.572;2023-02-22T06:34:28;100020.13;;;5.20;73.34
45888;BME280;31595;51.418;7.572;2023-02-22T06:36:55;100018.06;;;5.07;73.09
45888;BME280;31595;51.418;7.572;2023-02-22T06:39:26;100018.94;;;5.02;72.51
45888;BME280;31595;51.418;7.572;2023-02-22T06:41:54;100026.41;;;4.97;73.31
45888;BME280;31595;51.418;7.572;2023-02-22T06:44:27;100026.09;;;5.03;72.76
45888;BME280;31595;51.418;7.572;2023-02-22T06:47:08;100023.03;;;5.05;72.60
45888;BME280;31595;51.418;7.572;2023-02-22T06:49:37;100015.25;;;5.12;72.59
45888;BME280;31595;51.418;7.572;2023-02-22T06:52:06;100017.16;;;5.17;72.60
45888;BME280;31595;51.418;7.572;2023-02-22T06:54:34;100014.09;;;5.18;72.39
45888;BME280;31595;51.418;7.572;2023-02-22T06:57:02;100023.34;;;5.33;72.30
45888;BME280;31595;51.418;7.572;2023-02-22T06:59:38;100014.72;;;5.39;72.64
45888;BME280;31595;51.418;7.572;2023-02-22T07:02:15;100012.38;;;5.52;72.41
45888;BME280;31595;51.418;7.572;2023-02-22T07:04:53;100015.28;;;5.65;72.21
45888;BME280;31595;51.418;7.572;2023-02-22T07:07:21;100018.47;;;5.78;72.00
45888;BME280;31595;51.418;7.572;2023-02-22T07:10:00;100018.06;;;5.89;71.40
45888;BME280;31595;51.418;7.572;2023-02-22T07:12:38;100016.78;;;6.06;70.90
45888;BME280;31595;51.418;7.572;2023-02-22T07:15:30;100017.63;;;6.25;70.61
45888;BME280;31595;51.418;7.572;2023-02-22T07:18:08;100025.94;;;6.44;70.65
45888;BME280;31595;51.418;7.572;2023-02-22T07:20:41;100020.44;;;6.63;69.96
45888;BME280;31595;51.418;7.572;2023-02-22T07:23:09;100021.56;;;6.81;69.28
45888;BME280;31595;51.418;7.572;2023-02-22T07:25:43;100015.59;;;7.07;68.21
45888;BME280;31595;51.418;7.572;2023-02-22T07:28:14;100021.38;;;7.43;67.31
45888;BME280;31595;51.418;7.572;2023-02-22T07:33:30;100022.25;;;7.99;64.94
45888;BME280;31595;51.418;7.572;2023-02-22T07:39:09;100014.00;;;8.22;63.93
45888;BME280;31595;51.418;7.572;2023-02-22T07:41:40;100017.78;;;8.40;62.98
45888;BME280;31595;51.418;7.572;2023-02-22T07:47:04;100012.47;;;9.25;62.18
45888;BME280;31595;51.418;7.572;2023-02-22T07:49:31;100014.47;;;9.55;60.61
45888;BME280;31595;51.418;7.572;2023-02-22T07:51:59;100009.06;;;9.90;60.08
45888;BME280;31595;51.418;7.572;2023-02-22T07:57:36;100008.25;;;11.17;56.86
45888;BME280;31595;51.418;7.572;2023-02-22T08:00:11;99994.56;;;12.06;54.86
45888;BME280;31595;51.418;7.572;2023-02-22T08:02:55;99993.78;;;12.98;51.40
45888;BME280;31595;51.418;7.572;2023-02-22T08:05:24;99987.47;;;13.68;51.07
45888;BME280;31595;51.418;7.572;2023-02-22T08:08:01;99979.81;;;14.39;48.58
45888;BME280;31595;51.418;7.572;2023-02-22T08:10:31;99988.81;;;14.97;48.26
45888;BME280;31595;51.418;7.572;2023-02-22T08:16:27;99979.47;;;15.97;45.04
45888;BME280;31595;51.418;7.572;2023-02-22T08:19:00;99971.88;;;16.49;43.80
45888;BME280;31595;51.418;7.572;2023-02-22T08:24:41;99963.69;;;16.95;43.10
45888;BME280;31595;51.418;7.572;2023-02-22T08:27:15;99959.22;;;17.79;41.53
45888;BME280;31595;51.418;7.572;2023-02-22T08:29:46;99958.63;;;18.70;39.77
45888;BME280;31595;51.418;7.572;2023-02-22T08:35:22;99958.41;;;19.91;37.42
45888;BME280;31595;51.418;7.572;2023-02-22T08:37:51;99947.13;;;19.94;37.44
45888;BME280;31595;51.418;7.572;2023-02-22T08:40:28;99953.13;;;19.85;37.65
45888;BME280;31595;51.418;7.572;2023-02-22T08:43:18;99946.63;;;20.37;36.85
45888;BME280;31595;51.418;7.572;2023-02-22T08:45:49;99943.59;;;20.63;36.36
45888;BME280;31595;51.418;7.572;2023-02-22T08:48:20;99949.50;;;21.21;35.35
45888;BME280;31595;51.418;7.572;2023-02-22T08:50:57;99939.91;;;21.79;34.65
45888;BME280;31595;51.418;7.572;2023-02-22T08:53:30;99935.47;;;22.25;33.85
45888;BME280;31595;51.418;7.572;2023-02-22T08:55:58;99932.59;;;22.46;33.55
45888;BME280;31595;51.418;7.572;2023-02-22T08:58:28;99932.84;;;23.06;33.08
45888;BME280;31595;51.418;7.572;2023-02-22T09:01:10;99929.75;;;23.45;32.38
45888;BME280;31595;51.418;7.572;2023-02-22T09:06:46;99928.06;;;24.11;31.90
45888;BME280;31595;51.418;7.572;2023-02-22T09:09:17;99921.63;;;24.03;31.22
45888;BME280;31595;51.418;7.572;2023-02-22T09:15:09;99912.56;;;24.91;30.06
45888;BME280;31595;51.418;7.572;2023-02-22T09:17:40;99914.13;;;25.58;29.27
45888;BME280;31595;51.418;7.572;2023-02-22T09:20:19;99909.81;;;26.20;28.07
45888;BME280;31595;51.418;7.572;2023-02-22T09:22:49;99906.78;;;26.07;28.96
45888;BME280;31595;51.418;7.572;2023-02-22T09:25:23;99908.53;;;26.88;27.91
45888;BME280;31595;51.418;7.572;2023-02-22T09:27:55;99907.78;;;26.64;27.66
45888;BME280;31595;51.418;7.572;2023-02-22T09:31:22;99904.91;;;27.04;28.04
45888;BME280;31595;51.418;7.572;2023-02-22T09:33:38;99905.53;;;26.76;27.92
45888;BME280;31595;51.418;7.572;2023-02-22T09:36:15;99902.69;;;26.76;27.88
45888;BME280;31595;51.418;7.572;2023-02-22T09:38:48;99901.66;;;26.86;27.94
45888;BME280;31595;51.418;7.572;2023-02-22T09:41:23;99901.63;;;27.42;27.19
45888;BME280;31595;51.418;7.572;2023-02-22T09:44:14;99900.69;;;27.82;26.92
45888;BME280;31595;51.418;7.572;2023-02-22T09:46:47;99891.22;;;28.01;26.28
45888;BME280;31595;51.418;7.572;2023-02-22T09:49:22;99891.00;;;28.41;26.13
45888;BME280;31595;51.418;7.572;2023-02-22T09:51:58;99886.94;;;28.97;25.51
45888;BME280;31595;51.418;7.572;2023-02-22T09:54:32;99890.69;;;29.74;25.34
45888;BME280;31595;51.418;7.572;2023-02-22T09:57:06;99883.81;;;29.72;25.06
45888;BME280;31595;51.418;7.572;2023-02-22T09:59:41;99884.69;;;29.69;25.32
45888;BME280;31595;51.418;7.572;2023-02-22T10:02:25;99873.44;;;29.87;24.73
45888;BME280;31595;51.418;7.572;2023-02-22T10:04:58;99873.88;;;30.90;23.92
45888;BME280;31595;51.418;7.572;2023-02-22T10:07:38;99870.59;;;31.32;23.32
45888;BME280;31595;51.418;7.572;2023-02-22T10:10:17;99863.84;;;31.58;22.71
45888;BME280;31595;51.418;7.572;2023-02-22T10:12:58;99854.00;;;31.95;22.11
45888;BME280;31595;51.418;7.572;2023-02-22T10:15:48;99861.22;;;31.82;22.67
45888;BME280;31595;51.418;7.572;2023-02-22T10:18:43;99854.72;;;31.50;23.18
45888;BME280;31595;51.418;7.572;2023-02-22T10:21:40;99844.75;;;31.42;23.47
45888;BME280;31595;51.418;7.572;2023-02-22T10:24:31;99846.94;;;31.87;22.53
45888;BME280;31595;51.418;7.572;2023-02-22T10:27:16;99843.13;;;31.90;22.12
45888;BME280;31595;51.418;7.572;2023-02-22T10:29:50;99837.91;;;32.16;22.42
45888;BME280;31595;51.418;7.572;2023-02-22T10:32:27;99842.88;;;32.16;23.05
45888;BME280;31595;51.418;7.572;2023-02-22T10:35:17;99839.03;;;32.56;22.65
45888;BME280;31595;51.418;7.572;2023-02-22T10:37:51;99838.38;;;32.24;21.25
45888;BME280;31595;51.418;7.572;2023-02-22T10:40:25;99829.88;;;30.59;22.28
45888;BME280;31595;51.418;7.572;2023-02-22T10:43:01;99836.28;;;30.41;22.06
45888;BME280;31595;51.418;7.572;2023-02-22T10:45:31;99836.38;;;29.03;22.81
45888;BME280;31595;51.418;7.572;2023-02-22T10:48:05;99837.72;;;28.86;23.32
45888;BME280;31595;51.418;7.572;2023-02-22T10:50:40;99841.81;;;28.43;23.81
45888;BME280;31595;51.418;7.572;2023-02-22T10:53:09;99828.41;;;28.40;24.02
45888;BME280;31595;51.418;7.572;2023-02-22T10:56:13;99838.03;;;27.87;24.33
45888;BME280;31595;51.418;7.572;2023-02-22T10:58:45;99834.97;;;27.62;24.89
45888;BME280;31595;51.418;7.572;2023-02-22T11:01:18;99825.31;;;27.56;25.29
45888;BME280;31595;51.418;7.572;2023-02-22T11:03:56;99832.19;;;27.74;24.56
45888;BME280;31595;51.418;7.572;2023-02-22T11:06:26;99826.75;;;27.47;25.18
45888;BME280;31595;51.418;7.572;2023-02-22T11:09:07;99821.03;;;27.64;25.17
45888;BME280;31595;51.418;7.572;2023-02-22T11:11:38;99830.81;;;26.57;25.90
45888;BME280;31595;51.418;7.572;2023-02-22T11:14:06;99826.63;;;26.42;26.83
45888;BME280;31595;51.418;7.572;2023-02-22T11:16:37;99828.44;;;27.08;25.98
45888;BME280;31595;51.418;7.572;2023-02-22T11:19:16;99828.41;;;28.40;24.56
45888;BME280;31595;51.418;7.572;2023-02-22T11:21:47;99816.78;;;28.60;24.15
45888;BME280;31595;51.418;7.572;2023-02-22T11:24:19;99812.16;;;29.55;23.89
45888;BME280;31595;51.418;7.572;2023-02-22T11:26:52;99804.72;;;30.72;23.07
45888;BME280;31595;51.418;7.572;2023-02-22T11:29:25;99803.75;;;31.28;21.90
45888;BME280;31595;51.418;7.572;2023-02-22T11:31:54;99799.69;;;30.54;22.86
45888;BME280;31595;51.418;7.572;2023-02-22T11:34:32;99798.56;;;29.94;23.03
45888;BME280;31595;51.418;7.572;2023-02-22T11:37:26;99791.88;;;30.20;22.20
45888;BME280;31595;51.418;7.572;2023-02-22T11:40:13;99790.53;;;30.46;22.54
45888;BME280;31595;51.418;7.572;2023-02-22T11:42:45;99786.19;;;30.95;21.99
45888;BME280;31595;51.418;7.572;2023-02-22T11:45:16;99779.59;;;31.26;20.99
45888;BME280;31595;51.418;7.572;2023-02-22T11:47:54;99780.13;;;30.71;20.98
45888;BME280;31595;51.418;7.572;2023-02-22T11:50:27;99784.09;;;30.64;21.35
45888;BME280;31595;51.418;7.572;2023-02-22T11:53:09;99781.69;;;31.25;21.01
45888;BME280;31595;51.418;7.572;2023-02-22T11:55:46;99772.78;;;31.42;20.58
45888;BME280;31595;51.418;7.572;2023-02-22T11:58:28;99774.16;;;31.96;19.56
45888;BME280;31595;51.418;7.572;2023-02-22T12:01:06;99761.69;;;31.31;20.11
45888;BME280;31595;51.418;7.572;2023-02-22T12:06:44;99762.78;;;32.48;19.42
45888;BME280;31595;51.418;7.572;2023-02-22T12:09:19;99764.38;;;33.43;19.05
45888;BME280;31595;51.418;7.572;2023-02-22T12:11:57;99763.84;;;33.54;18.43
45888;BME280;31595;51.418;7.572;2023-02-22T12:14:35;99760.53;;;33.04;18.70
45888;BME280;31595;51.418;7.572;2023-02-22T12:17:21;99757.16;;;33.14;18.07
45888;BME280;31595;51.418;7.572;2023-02-22T12:20:01;99746.63;;;33.35;17.65
45888;BME280;31595;51.418;7.572;2023-02-22T12:22:37;99762.34;;;32.92;17.85
45888;BME280;31595;51.418;7.572;2023-02-22T12:25:18;99750.78;;;31.48;18.77
45888;BME280;31595;51.418;7.572;2023-02-22T12:28:18;99759.38;;;30.45;19.11
45888;BME280;31595;51.418;7.572;2023-02-22T12:31:00;99750.53;;;30.17;21.13
45888;BME280;31595;51.418;7.572;2023-02-22T12:33:47;99747.00;;;31.29;19.21
45888;BME280;31595;51.418;7.572;2023-02-22T12:36:21;99744.19;;;31.47;18.88
45888;BME280;31595;51.418;7.572;2023-02-22T12:38:55;99737.50;;;32.33;18.21
45888;BME280;31595;51.418;7.572;2023-02-22T12:41:35;99743.13;;;32.89;18.19
45888;BME280;31595;51.418;7.572;2023-02-22T12:44:10;99738.44;;;31.47;18.73
45888;BME280;31595;51.418;7.572;2023-02-22T12:46:47;99738.38;;;30.88;19.88
45888;BME280;31595;51.418;7.572;2023-02-22T12:49:27;99731.34;;;31.30;19.81
45888;BME280;31595;51.418;7.572;2023-02-22T12:52:03;99728.56;;;31.76;19.19
45888;BME280;31595;51.418;7.572;2023-02-22T12:54:46;99729.19;;;31.89;19.25
45888;BME280;31595;51.418;7.572;2023-02-22T12:57:23;99723.34;;;31.34;19.65
45888;BME280;31595;51.418;7.572;2023-02-22T13:00:03;99729.09;;;31.34;19.08
45888;BME280;31595;51.418;7.572;2023-02-22T13:02:35;99722.13;;;31.44;19.73
45888;BME280;31595;51.418;7.572;2023-02-22T13:05:13;99723.81;;;31.23;19.62
45888;BME280;31595;51.418;7.572;2023-02-22T13:07:50;99720.56;;;30.71;20.16
45888;BME280;31595;51.418;7.572;2023-02-22T13:14:06;99721.75;;;32.62;17.87
45888;BME280;31595;51.418;7.572;2023-02-22T13:16:55;99712.44;;;33.01;17.85
45888;BME280;31595;51.418;7.572;2023-02-22T13:19:42;99714.25;;;30.54;19.75
45888;BME280;31595;51.418;7.572;2023-02-22T13:22:18;99709.13;;;29.83;21.16
45888;BME280;31595;51.418;7.572;2023-02-22T13:24:58;99710.84;;;29.81;20.65
45888;BME280;31595;51.418;7.572;2023-02-22T13:27:34;99713.88;;;28.65;21.60
45888;BME280;31595;51.418;7.572;2023-02-22T13:30:25;99701.63;;;28.52;21.74
45888;BME280;31595;51.418;7.572;2023-02-22T13:33:20;99713.63;;;28.60;21.59
45888;BME280;31595;51.418;7.572;2023-02-22T13:39:24;99714.13;;;28.16;21.49
45888;BME280;31595;51.418;7.572;2023-02-22T13:42:37;99720.28;;;26.90;23.09
45888;BME280;31595;51.418;7.572;2023-02-22T13:45:40;99712.31;;;27.14;23.20
45888;BME280;31595;51.418;7.572;2023-02-22T13:51:45;99720.31;;;27.69;23.52
45888;BME280;31595;51.418;7.572;2023-02-22T13:57:20;99708.47;;;26.88;23.57
45888;BME280;31595;51.418;7.572;2023-02-22T14:00:18;99714.53;;;26.38;24.54
45888;BME280;31595;51.418;7.572;2023-02-22T14:03:04;99710.28;;;26.46;24.47
45888;BME280;31595;51.418;7.572;2023-02-22T14:05:53;99716.34;;;25.88;24.39
45888;BME280;31595;51.418;7.572;2023-02-22T14:08:42;99711.63;;;25.34;25.75
45888;BME280;31595;51.418;7.572;2023-02-22T14:14:26;99717.38;;;24.52;26.62
45888;BME280;31595;51.418;7.572;2023-02-22T14:17:20;99721.97;;;24.43;26.30
45888;BME280;31595;51.418;7.572;2023-02-22T14:26:27;99727.38;;;23.20;29.04
45888;BME280;31595;51.418;7.572;2023-02-22T14:28:58;99719.72;;;23.09;29.30
45888;BME280;31595;51.418;7.572;2023-02-22T14:31:29;99715.06;;;22.81;29.55
45888;BME280;31595;51.418;7.572;2023-02-22T14:34:10;99721.72;;;22.57;30.73
45888;BME280;31595;51.418;7.572;2023-02-22T14:36:50;99716.81;;;22.61;30.29
45888;BME280;31595;51.418;7.572;2023-02-22T14:39:30;99715.28;;;22.49;30.56
45888;BME280;31595;51.418;7.572;2023-02-22T14:42:09;99714.91;;;22.40;30.61
45888;BME280;31595;51.418;7.572;2023-02-22T14:44:56;99717.50;;;21.98;30.62
45888;BME280;31595;51.418;7.572;2023-02-22T14:47:34;99726.97;;;21.45;31.43
45888;BME280;31595;51.418;7.572;2023-02-22T14:50:05;99715.63;;;21.20;31.95